createdAt,value
2022-09-05T00:01:49.466Z,7.68
2022-09-05T00:04:44.462Z,8.20
2022-09-05T00:07:37.425Z,8.13
2022-09-05T00:10:10.828Z,8.68
2022-09-05T00:12:46.443Z,9.00
2022-09-05T00:15:35.022Z,10.15
2022-09-05T00:21:10.479Z,9.50
2022-09-05T00:24:22.302Z,7.93
2022-09-05T00:25:00.755Z,7.80
2022-09-05T00:27:53.145Z,9.30
2022-09-05T00:33:21.012Z,9.88
2022-09-05T00:36:13.234Z,8.13
2022-09-05T00:38:42.563Z,8.73
2022-09-05T00:41:13.088Z,8.07
2022-09-05T00:43:43.612Z,9.90
2022-09-05T00:46:36.974Z,9.15
2022-09-05T00:49:25.232Z,9.35
2022-09-05T00:52:04.091Z,7.65
2022-09-05T00:54:46.132Z,9.75
2022-09-05T00:57:49.286Z,13.65
2022-09-05T01:00:22.754Z,9.23
2022-09-05T01:03:11.766Z,8.57
2022-09-05T01:09:11.001Z,11.45
2022-09-05T01:11:56.707Z,8.13
2022-09-05T01:14:56.765Z,9.80
2022-09-05T01:17:53.189Z,8.80
2022-09-05T01:20:38.554Z,13.18
2022-09-05T01:23:20.368Z,9.00
2022-09-05T01:26:08.385Z,8.25
2022-09-05T01:29:16.801Z,9.82
2022-09-05T01:32:27.194Z,8.95
2022-09-05T01:34:57.509Z,8.60
2022-09-05T01:38:06.636Z,9.70
2022-09-05T01:41:18.791Z,8.75
2022-09-05T01:44:14.693Z,9.60
2022-09-05T01:46:50.579Z,9.60
2022-09-05T01:49:42.751Z,10.18
2022-09-05T01:52:22.400Z,8.27
2022-09-05T01:55:06.954Z,8.50
2022-09-05T01:57:54.701Z,10.27
2022-09-05T02:00:55.829Z,11.57
2022-09-05T02:04:13.647Z,9.10
2022-09-05T02:07:15.179Z,11.48
2022-09-05T02:10:18.172Z,10.68
2022-09-05T02:13:02.403Z,8.93
2022-09-05T02:15:53.849Z,8.35
2022-09-05T02:18:45.731Z,9.05
2022-09-05T02:21:56.101Z,9.85
2022-09-05T02:26:00.523Z,8.75
2022-09-05T02:28:04.722Z,11.40
2022-09-05T02:30:58.968Z,9.82
2022-09-05T02:33:35.732Z,10.40
2022-09-05T02:36:09.709Z,10.55
2022-09-05T02:41:40.507Z,8.55
2022-09-05T02:45:15.180Z,9.07
2022-09-05T02:45:24.196Z,10.18
2022-09-05T02:47:54.641Z,8.73
2022-09-05T02:54:45.249Z,10.30
2022-09-05T02:57:39.226Z,9.45
2022-09-05T02:57:45.367Z,9.23
2022-09-05T02:59:25.842Z,12.25
2022-09-05T03:02:26.170Z,10.20
2022-09-05T03:05:09.830Z,8.65
2022-09-05T03:08:07.309Z,9.05
2022-09-05T03:10:54.290Z,10.30
2022-09-05T03:13:54.478Z,9.02
2022-09-05T03:17:09.747Z,10.57
2022-09-05T03:19:54.727Z,10.65
2022-09-05T03:22:49.280Z,10.15
2022-09-05T03:25:19.080Z,9.93
2022-09-05T03:28:05.335Z,9.82
2022-09-05T03:30:49.309Z,11.10
2022-09-05T03:33:36.860Z,10.18
2022-09-05T03:36:33.868Z,13.07
2022-09-05T03:39:30.937Z,10.60
2022-09-05T03:42:31.021Z,10.50
2022-09-05T03:45:38.556Z,10.85
2022-09-05T03:48:40.682Z,9.80
2022-09-05T03:57:08.083Z,11.07
2022-09-05T03:57:14.288Z,11.63
2022-09-05T03:58:02.185Z,8.63
2022-09-05T04:01:17.565Z,9.30
2022-09-05T04:08:23.677Z,9.00
2022-09-05T04:08:30.677Z,10.80
2022-09-05T04:10:22.883Z,9.93
2022-09-05T04:12:52.138Z,10.82
2022-09-05T04:15:21.737Z,9.13
2022-09-05T04:17:54.075Z,10.15
2022-09-05T04:20:40.481Z,10.02
2022-09-05T04:23:56.959Z,9.18
2022-09-05T04:26:42.268Z,10.35
2022-09-05T04:29:23.807Z,9.20
2022-09-05T04:32:18.966Z,8.98
2022-09-05T04:35:18.825Z,9.57
2022-09-05T04:38:13.386Z,10.38
2022-09-05T04:41:03.464Z,11.70
2022-09-05T04:43:49.719Z,11.38
2022-09-05T04:46:56.555Z,11.50
2022-09-05T04:49:33.515Z,10.98
2022-09-05T04:52:09.416Z,10.20
2022-09-05T04:55:01.228Z,10.32
2022-09-05T04:57:49.627Z,13.25
2022-09-05T05:06:05.503Z,12.63
2022-09-05T05:06:09.238Z,11.00
2022-09-05T05:06:45.609Z,11.57
2022-09-05T05:09:28.708Z,12.15
2022-09-05T05:17:56.295Z,11.25
2022-09-05T05:18:10.551Z,11.30
2022-09-05T05:18:36.728Z,13.68
2022-09-05T05:21:21.506Z,13.20
2022-09-05T05:23:58.952Z,12.10
2022-09-05T05:26:43.862Z,11.95
2022-09-05T05:29:19.428Z,10.05
2022-09-05T05:31:53.011Z,10.75
2022-09-05T05:34:32.172Z,9.95
2022-09-05T05:37:23.903Z,11.43
2022-09-05T05:40:08.750Z,11.07
2022-09-05T05:42:38.520Z,10.40
2022-09-05T05:45:16.988Z,10.30
2022-09-05T05:47:54.538Z,10.70
2022-09-05T05:50:49.052Z,11.65
2022-09-05T05:53:42.988Z,10.65
2022-09-05T05:56:22.639Z,11.35
2022-09-05T05:59:24.908Z,11.18
2022-09-05T06:02:20.884Z,11.50
2022-09-05T06:05:09.664Z,12.98
2022-09-05T06:08:50.430Z,15.18
2022-09-05T06:14:59.827Z,11.50
2022-09-05T06:15:09.397Z,13.38
2022-09-05T06:17:02.370Z,11.77
2022-09-05T06:22:07.083Z,11.50
2022-09-05T06:22:56.899Z,13.95
2022-09-05T06:25:51.979Z,18.55
2022-09-05T06:28:25.971Z,12.88
2022-09-05T06:31:43.179Z,14.52
2022-09-05T06:34:33.572Z,11.40
2022-09-05T06:37:03.264Z,13.07
2022-09-05T06:39:54.664Z,11.00
2022-09-05T06:42:42.428Z,12.85
2022-09-05T06:45:35.885Z,9.40
2022-09-05T06:48:21.447Z,13.30
2022-09-05T06:51:34.518Z,11.70
2022-09-05T06:54:10.173Z,13.13
2022-09-05T06:57:15.665Z,16.77
2022-09-05T07:00:15.580Z,16.55
2022-09-05T07:03:18.776Z,13.40
2022-09-05T07:06:07.495Z,12.13
2022-09-05T07:08:53.940Z,14.35
2022-09-05T07:11:31.681Z,15.48
2022-09-05T07:14:29.769Z,14.32
2022-09-05T07:17:10.256Z,12.65
2022-09-05T07:19:49.662Z,12.73
2022-09-05T07:22:47.156Z,11.02
2022-09-05T07:25:20.689Z,11.63
2022-09-05T07:28:28.396Z,12.90
2022-09-05T07:31:04.168Z,13.70
2022-09-05T07:33:31.942Z,16.15
2022-09-05T07:36:31.153Z,12.77
2022-09-05T07:39:25.169Z,11.15
2022-09-05T07:41:53.488Z,10.88
2022-09-05T07:44:25.758Z,10.70
2022-09-05T07:47:10.173Z,9.13
2022-09-05T07:49:39.914Z,13.30
2022-09-05T07:56:47.984Z,11.57
2022-09-05T07:57:13.132Z,10.60
2022-09-05T07:58:17.225Z,12.38
2022-09-05T08:00:50.727Z,14.50
2022-09-05T08:03:23.099Z,9.43
2022-09-05T08:05:55.452Z,10.25
2022-09-05T08:08:27.059Z,10.27
2022-09-05T08:11:26.107Z,10.50
2022-09-05T08:14:44.048Z,10.57
2022-09-05T08:17:00.408Z,9.90
2022-09-05T08:19:50.497Z,9.95
2022-09-05T08:25:14.645Z,11.32
2022-09-05T08:27:54.182Z,11.38
2022-09-05T08:30:26.823Z,13.10
2022-09-05T08:33:13.872Z,14.30
2022-09-05T08:35:48.883Z,10.73
2022-09-05T08:38:25.773Z,11.77
2022-09-05T08:41:05.178Z,12.70
2022-09-05T08:46:35.130Z,9.77
2022-09-05T08:46:42.889Z,11.07
2022-09-05T08:49:38.016Z,10.52
2022-09-05T08:52:27.873Z,9.88
2022-09-05T08:55:11.599Z,11.02
2022-09-05T08:58:25.467Z,12.77
2022-09-05T09:01:01.564Z,12.10
2022-09-05T09:03:41.960Z,10.52
2022-09-05T09:07:19.892Z,12.77
2022-09-05T09:09:41.251Z,9.75
2022-09-05T09:12:38.805Z,11.45
2022-09-05T09:15:20.654Z,11.20
2022-09-05T09:17:50.056Z,10.35
2022-09-05T09:20:25.676Z,14.27
2022-09-05T09:23:30.372Z,13.77
2022-09-05T09:26:18.514Z,12.00
2022-09-05T09:28:53.318Z,11.50
2022-09-05T09:31:53.002Z,9.85
2022-09-05T09:34:26.046Z,9.05
2022-09-05T09:37:18.484Z,9.40
2022-09-05T09:40:14.959Z,10.65
2022-09-05T09:42:53.888Z,9.68
2022-09-05T09:45:43.029Z,12.43
2022-09-05T09:48:45.983Z,9.65
2022-09-05T09:51:36.116Z,10.00
2022-09-05T09:54:17.971Z,10.00
2022-09-05T09:57:15.620Z,10.25
2022-09-05T10:00:07.610Z,10.82
2022-09-05T10:05:46.231Z,8.98
2022-09-05T10:10:56.270Z,8.38
2022-09-05T10:11:08.799Z,8.07
2022-09-05T10:12:09.154Z,9.55
2022-09-05T10:15:30.165Z,9.50
2022-09-05T10:18:20.428Z,8.35
2022-09-05T10:21:15.376Z,8.55
2022-09-05T10:24:01.318Z,12.10
2022-09-05T10:26:57.635Z,8.40
2022-09-05T10:29:48.365Z,10.00
2022-09-05T10:35:08.138Z,7.65
2022-09-05T10:35:27.758Z,8.82
2022-09-05T10:38:00.762Z,7.85
2022-09-05T10:40:45.377Z,8.93
2022-09-05T10:43:28.757Z,8.75
2022-09-05T10:46:01.677Z,8.05
2022-09-05T10:48:41.336Z,8.07
2022-09-05T10:51:27.365Z,8.68
2022-09-05T10:54:03.845Z,7.80
2022-09-05T10:56:46.121Z,7.93
2022-09-05T11:02:19.024Z,7.93
2022-09-05T11:02:36.709Z,7.53
2022-09-05T11:05:22.984Z,9.98
2022-09-05T11:08:07.640Z,8.18
2022-09-05T11:11:28.138Z,8.15
2022-09-05T11:14:07.304Z,10.27
2022-09-05T11:17:00.287Z,10.20
2022-09-05T11:19:39.551Z,9.85
2022-09-05T11:22:22.617Z,14.20
2022-09-05T11:25:03.565Z,9.73
2022-09-05T11:27:49.841Z,10.27
2022-09-05T11:30:29.127Z,7.60
2022-09-05T11:39:47.195Z,9.30
2022-09-05T11:39:57.303Z,7.97
2022-09-05T11:40:29.053Z,7.97
2022-09-05T11:43:06.136Z,7.82
2022-09-05T11:45:38.984Z,7.63
2022-09-05T11:48:53.399Z,7.38
2022-09-05T11:51:33.554Z,7.90
2022-09-05T11:54:51.421Z,6.93
2022-09-05T11:57:58.242Z,7.88
2022-09-05T12:00:51.864Z,7.68
2022-09-05T12:04:00.339Z,8.38
2022-09-05T12:07:30.147Z,7.57
2022-09-05T12:10:46.475Z,8.20
2022-09-05T12:13:17.042Z,9.02
2022-09-05T12:16:00.632Z,7.38
2022-09-05T12:19:18.770Z,9.10
2022-09-05T12:22:16.350Z,6.68
2022-09-05T12:25:16.060Z,8.65
2022-09-05T12:27:53.808Z,6.82
2022-09-05T12:30:55.086Z,6.95
2022-09-05T12:36:04.945Z,5.82
2022-09-05T12:40:16.523Z,6.75
2022-09-05T12:41:32.413Z,7.32
2022-09-05T12:43:14.357Z,7.45
2022-09-05T12:45:50.291Z,7.13
2022-09-05T12:48:39.615Z,5.75
2022-09-05T12:51:46.658Z,6.53
2022-09-05T12:54:26.231Z,6.20
2022-09-05T13:01:25.733Z,7.05
2022-09-05T13:03:04.852Z,5.68
2022-09-05T13:03:09.276Z,9.87
2022-09-05T13:05:52.156Z,6.15
2022-09-05T13:08:21.573Z,6.00
2022-09-05T13:14:48.923Z,6.85
2022-09-05T13:14:54.431Z,7.70
2022-09-05T13:16:46.275Z,6.68
2022-09-05T13:19:24.984Z,9.15
2022-09-05T13:21:56.115Z,22.85
2022-09-05T13:24:38.444Z,12.88
2022-09-05T13:27:25.543Z,6.55
2022-09-05T13:31:12.407Z,7.32
2022-09-05T13:38:01.013Z,8.85
2022-09-05T13:38:14.174Z,8.23
2022-09-05T13:39:02.424Z,12.07
2022-09-05T13:41:36.279Z,8.18
2022-09-05T13:44:27.546Z,9.05
2022-09-05T13:46:59.239Z,11.05
2022-09-05T13:49:45.225Z,11.07
2022-09-05T13:52:28.976Z,7.45
2022-09-05T13:55:08.972Z,16.80
2022-09-05T13:57:53.083Z,12.80
2022-09-05T14:00:28.270Z,9.57
2022-09-05T14:06:48.741Z,7.95
2022-09-05T14:09:43.192Z,8.55
2022-09-05T14:12:31.325Z,9.88
2022-09-05T14:15:09.377Z,8.23
2022-09-05T14:18:01.258Z,10.07
2022-09-05T14:20:54.894Z,6.88
2022-09-05T14:23:27.696Z,14.73
2022-09-05T14:26:00.508Z,8.43
2022-09-05T14:28:36.167Z,8.40
2022-09-05T14:35:00.760Z,6.47
2022-09-05T14:37:39.203Z,10.23
2022-09-05T14:37:49.105Z,7.15
2022-09-05T14:40:29.110Z,11.32
2022-09-05T14:43:26.678Z,7.07
2022-09-05T14:46:07.421Z,6.63
2022-09-05T14:51:36.119Z,5.75
2022-09-05T15:01:50.060Z,5.80
2022-09-05T15:02:58.244Z,6.38
2022-09-05T15:03:04.967Z,5.63
2022-09-05T15:05:40.001Z,5.30
2022-09-05T15:09:27.268Z,5.65
2022-09-05T15:12:15.945Z,5.60
2022-09-05T15:14:02.490Z,7.20
2022-09-05T15:16:31.496Z,5.70
2022-09-05T15:18:58.485Z,8.15
2022-09-05T15:21:33.476Z,7.15
2022-09-05T15:24:17.438Z,5.57
2022-09-05T15:26:53.550Z,8.10
2022-09-05T15:29:24.652Z,5.88
2022-09-05T15:32:09.082Z,6.05
2022-09-05T15:34:38.526Z,5.70
2022-09-05T15:37:22.030Z,6.53
2022-09-05T15:40:01.579Z,6.90
2022-09-05T15:42:36.643Z,7.30
2022-09-05T15:45:10.752Z,6.95
2022-09-05T15:47:43.599Z,5.60
2022-09-05T15:50:21.300Z,6.10
2022-09-05T15:52:52.669Z,8.93
2022-09-05T15:55:25.995Z,6.80
2022-09-05T15:58:01.483Z,8.27
2022-09-05T16:00:51.203Z,9.52
2022-09-05T16:10:34.790Z,6.57
2022-09-05T16:10:45.443Z,6.78
2022-09-05T16:15:40.772Z,6.03
2022-09-05T16:23:21.010Z,6.82
2022-09-05T16:23:28.532Z,7.00
2022-09-05T16:24:06.875Z,10.75
2022-09-05T16:26:41.650Z,6.28
2022-09-05T16:29:26.472Z,6.65
2022-09-05T16:31:59.688Z,6.22
2022-09-05T16:35:03.282Z,6.55
2022-09-05T16:37:43.665Z,6.15
2022-09-05T16:40:16.550Z,8.80
2022-09-05T16:42:52.900Z,8.70
2022-09-05T16:45:32.501Z,9.25
2022-09-05T16:48:27.358Z,6.93
2022-09-05T16:50:58.191Z,9.38
2022-09-05T16:53:59.126Z,9.45
2022-09-05T16:56:35.245Z,6.82
2022-09-05T16:59:10.264Z,7.13
2022-09-05T17:02:10.473Z,8.98
2022-09-05T17:05:04.876Z,7.78
2022-09-05T17:08:02.405Z,7.45
2022-09-05T17:11:29.592Z,6.85
2022-09-05T17:14:12.341Z,7.35
2022-09-05T17:16:53.651Z,7.55
2022-09-05T17:19:26.695Z,8.48
2022-09-05T17:28:01.173Z,14.48
2022-09-05T17:29:20.997Z,13.20
2022-09-05T17:29:32.180Z,7.95
2022-09-05T17:33:45.126Z,9.27
2022-09-05T17:36:39.218Z,8.70
2022-09-05T17:39:14.730Z,7.45
2022-09-05T17:41:55.959Z,8.23
2022-09-05T17:44:39.268Z,8.15
2022-09-05T17:47:42.672Z,7.47
2022-09-05T17:50:33.008Z,9.38
2022-09-05T17:53:26.112Z,10.43
2022-09-05T17:55:50.135Z,8.32
2022-09-05T17:58:48.802Z,7.95
2022-09-05T18:01:19.169Z,9.32
2022-09-05T18:03:55.598Z,8.48
2022-09-05T18:06:59.029Z,9.50
2022-09-05T18:09:48.053Z,8.48
2022-09-05T18:15:22.691Z,7.70
2022-09-05T18:17:52.224Z,7.53
2022-09-05T18:20:29.759Z,11.25
2022-09-05T18:23:37.354Z,9.30
2022-09-05T18:26:21.007Z,10.63
2022-09-05T18:29:00.354Z,9.02
2022-09-05T18:31:40.878Z,8.55
2022-09-05T18:34:19.047Z,8.88
2022-09-05T18:36:49.892Z,10.93
2022-09-05T18:39:37.811Z,10.27
2022-09-05T18:42:26.245Z,14.57
2022-09-05T18:45:14.885Z,8.43
2022-09-05T18:47:58.823Z,8.95
2022-09-05T18:50:33.680Z,8.90
2022-09-05T18:53:09.261Z,10.85
2022-09-05T18:56:12.081Z,8.23
2022-09-05T18:59:14.617Z,8.27
2022-09-05T19:01:55.714Z,9.57
2022-09-05T19:04:39.565Z,9.93
2022-09-05T19:07:34.556Z,10.25
2022-09-05T19:10:34.979Z,7.95
2022-09-05T19:13:23.967Z,8.15
2022-09-05T19:16:43.133Z,9.05
2022-09-05T19:19:27.790Z,9.77
2022-09-05T19:22:36.011Z,9.43
2022-09-05T19:24:46.311Z,12.80
2022-09-05T19:29:50.215Z,9.25
2022-09-05T19:37:07.200Z,7.80
2022-09-05T19:37:15.394Z,8.90
2022-09-05T19:37:22.571Z,8.50
2022-09-05T19:39:10.873Z,8.88
2022-09-05T19:47:29.368Z,8.57
2022-09-05T19:47:40.058Z,9.55
2022-09-05T19:47:52.174Z,9.43
2022-09-05T19:50:01.103Z,9.43
2022-09-05T19:52:27.911Z,8.48
2022-09-05T19:54:58.164Z,8.68
2022-09-05T19:57:26.183Z,8.88
2022-09-05T19:59:59.653Z,8.43
2022-09-05T20:02:34.777Z,8.13
2022-09-05T20:05:06.882Z,7.45
2022-09-05T20:07:35.847Z,7.65
2022-09-05T20:10:04.337Z,9.88
2022-09-05T20:12:34.242Z,8.35
2022-09-05T20:15:22.731Z,10.43
2022-09-05T20:17:53.947Z,9.75
2022-09-05T20:20:31.243Z,9.35
2022-09-05T20:23:07.824Z,8.38
2022-09-05T20:25:42.455Z,8.30
2022-09-05T20:28:13.175Z,9.07
2022-09-05T20:30:46.024Z,9.02
2022-09-05T20:33:26.755Z,9.38
2022-09-05T20:43:08.232Z,9.85
2022-09-05T20:43:17.502Z,9.27
2022-09-05T20:43:19.748Z,8.38
2022-09-05T20:44:41.674Z,10.02
2022-09-05T20:52:08.866Z,8.75
2022-09-05T20:54:05.809Z,8.05
2022-09-05T20:54:12.675Z,8.77
2022-09-05T20:56:05.402Z,8.90
2022-09-05T20:58:33.653Z,8.73
2022-09-05T21:01:21.291Z,8.63
2022-09-05T21:04:01.270Z,8.55
2022-09-05T21:06:34.171Z,12.20
2022-09-05T21:09:48.687Z,13.73
2022-09-05T21:12:27.806Z,9.32
2022-09-05T21:15:25.709Z,9.18
2022-09-05T21:18:02.905Z,13.30
2022-09-05T21:20:29.723Z,11.57
2022-09-05T21:22:56.601Z,9.32
2022-09-05T21:25:43.634Z,10.38
2022-09-05T21:28:36.997Z,10.68
2022-09-05T21:31:15.825Z,11.77
2022-09-05T21:33:45.993Z,10.80
2022-09-05T21:36:15.362Z,15.13
2022-09-05T21:38:43.145Z,9.15
2022-09-05T21:41:15.773Z,9.48
2022-09-05T21:47:35.228Z,9.73
2022-09-05T21:47:46.944Z,9.10
2022-09-05T21:49:23.342Z,10.38
2022-09-05T21:51:50.979Z,9.95
2022-09-05T21:59:13.434Z,11.20
2022-09-05T21:59:26.443Z,13.65
2022-09-05T22:00:12.711Z,10.93
2022-09-05T22:02:48.990Z,11.07
2022-09-05T22:05:16.050Z,9.95
2022-09-05T22:07:43.412Z,10.40
2022-09-05T22:10:10.636Z,11.32
2022-09-05T22:12:38.835Z,9.40
2022-09-05T22:15:27.193Z,11.40
2022-09-05T22:18:09.755Z,10.32
2022-09-05T22:20:53.502Z,10.35
2022-09-05T22:23:35.479Z,10.00
2022-09-05T22:26:06.896Z,10.50
2022-09-05T22:28:38.293Z,10.25
2022-09-05T22:31:07.612Z,12.65
2022-09-05T22:33:35.310Z,11.63
2022-09-05T22:36:02.301Z,10.43
2022-09-05T22:38:29.081Z,11.00
2022-09-05T22:40:56.023Z,11.35
2022-09-05T22:43:23.977Z,11.68
2022-09-05T22:45:55.896Z,11.13
2022-09-05T22:48:23.326Z,12.48
2022-09-05T22:50:50.100Z,10.50
2022-09-05T22:53:16.944Z,10.85
2022-09-05T22:55:43.852Z,11.25
2022-09-05T22:58:13.842Z,14.65
2022-09-05T23:00:41.728Z,12.20
2022-09-05T23:03:08.675Z,11.48
2022-09-05T23:05:35.750Z,10.77
2022-09-05T23:08:04.274Z,12.15
2022-09-05T23:10:31.505Z,11.57
2022-09-05T23:12:58.986Z,13.05
2022-09-05T23:15:26.423Z,13.43
2022-09-05T23:17:58.330Z,14.00
2022-09-05T23:20:27.359Z,14.80
2022-09-05T23:22:54.406Z,15.02
2022-09-05T23:25:22.232Z,11.15
2022-09-05T23:27:49.910Z,11.25
2022-09-05T23:30:17.374Z,11.88
2022-09-05T23:32:53.084Z,12.15
2022-09-05T23:35:20.185Z,16.15
2022-09-05T23:37:47.994Z,11.25
2022-09-05T23:40:17.758Z,11.80
2022-09-05T23:42:52.758Z,12.35
2022-09-05T23:45:19.661Z,13.00
2022-09-05T23:47:47.098Z,11.95
2022-09-05T23:50:14.650Z,11.70
2022-09-05T23:52:43.106Z,14.20
2022-09-05T23:55:11.414Z,11.60
2022-09-05T23:57:38.253Z,14.23
